sensor_id;sensor_type;location;lat;lon;timestamp;temperature;humidity
40023;DHT22;25713;-35.352;149.036;2023-02-28T00:01:50;21.20;85.20
40023;DHT22;25713;-35.352;149.036;2023-02-28T00:04:19;21.20;84.90
40023;DHT22;25713;-35.352;149.036;2023-02-28T00:06:48;21.20;84.90
40023;DHT22;25713;-35.352;149.036;2023-02-28T00:09:18;21.30;85.50
40023;DHT22;25713;-35.352;149.036;2023-02-28T00:11:47;21.30;85.20
40023;DHT22;25713;-35.352;149.036;2023-02-28T00:14:17;21.30;85.30
40023;DHT22;25713;-35.352;149.036;2023-02-28T00:16:48;21.30;85.70
40023;DHT22;25713;-35.352;149.036;2023-02-28T00:19:18;21.30;85.40
40023;DHT22;25713;-35.352;149.036;2023-02-28T00:21:47;21.30;85.50
40023;DHT22;25713;-35.352;149.036;2023-02-28T00:24:16;21.30;85.20
40023;DHT22;25713;-35.352;149.036;2023-02-28T00:26:46;21.30;85.50
40023;DHT22;25713;-35.352;149.036;2023-02-28T00:29:15;21.30;85.50
40023;DHT22;25713;-35.352;149.036;2023-02-28T00:31:48;21.40;85.20
40023;DHT22;25713;-35.352;149.036;2023-02-28T00:34:18;21.30;85.40
40023;DHT22;25713;-35.352;149.036;2023-02-28T00:36:47;21.30;85.40
40023;DHT22;25713;-35.352;149.036;2023-02-28T00:39:16;21.30;85.50
40023;DHT22;25713;-35.352;149.036;2023-02-28T00:41:46;21.30;85.50
40023;DHT22;25713;-35.352;149.036;2023-02-28T00:44:16;21.30;85.30
40023;DHT22;25713;-35.352;149.036;2023-02-28T00:46:47;21.30;85.60
40023;DHT22;25713;-35.352;149.036;2023-02-28T00:49:17;21.30;86.10
40023;DHT22;25713;-35.352;149.036;2023-02-28T00:51:46;21.40;85.40
40023;DHT22;25713;-35.352;149.036;2023-02-28T00:54:16;21.40;84.70
40023;DHT22;25713;-35.352;149.036;2023-02-28T00:56:45;21.50;84.60
40023;DHT22;25713;-35.352;149.036;2023-02-28T00:59:15;21.60;84.20
40023;DHT22;25713;-35.352;149.036;2023-02-28T01:01:47;21.60;83.30
40023;DHT22;25713;-35.352;149.036;2023-02-28T01:04:17;21.70;83.90
40023;DHT22;25713;-35.352;149.036;2023-02-28T01:06:47;21.70;82.80
40023;DHT22;25713;-35.352;149.036;2023-02-28T01:09:17;21.80;82.60
40023;DHT22;25713;-35.352;149.036;2023-02-28T01:11:47;21.70;83.30
40023;DHT22;25713;-35.352;149.036;2023-02-28T01:14:17;21.80;83.30
40023;DHT22;25713;-35.352;149.036;2023-02-28T01:16:50;21.90;81.80
40023;DHT22;25713;-35.352;149.036;2023-02-28T01:19:19;21.90;80.20
40023;DHT22;25713;-35.352;149.036;2023-02-28T01:21:49;21.90;80.10
40023;DHT22;25713;-35.352;149.036;2023-02-28T01:24:18;21.90;82.40
40023;DHT22;25713;-35.352;149.036;2023-02-28T01:26:48;21.90;82.10
40023;DHT22;25713;-35.352;149.036;2023-02-28T01:29:17;22.00;79.90
40023;DHT22;25713;-35.352;149.036;2023-02-28T01:31:49;22.00;81.60
40023;DHT22;25713;-35.352;149.036;2023-02-28T01:34:19;22.00;81.40
40023;DHT22;25713;-35.352;149.036;2023-02-28T01:36:48;22.00;80.80
40023;DHT22;25713;-35.352;149.036;2023-02-28T01:39:18;22.10;81.40
40023;DHT22;25713;-35.352;149.036;2023-02-28T01:41:47;22.20;79.10
40023;DHT22;25713;-35.352;149.036;2023-02-28T01:47:23;22.20;78.30
40023;DHT22;25713;-35.352;149.036;2023-02-28T01:49:54;22.30;77.30
40023;DHT22;25713;-35.352;149.036;2023-02-28T01:52:24;22.30;79.20
40023;DHT22;25713;-35.352;149.036;2023-02-28T01:54:58;22.40;78.20
40023;DHT22;25713;-35.352;149.036;2023-02-28T01:57:30;22.40;77.00
40023;DHT22;25713;-35.352;149.036;2023-02-28T02:00:04;22.40;76.30
40023;DHT22;25713;-35.352;149.036;2023-02-28T02:02:45;22.40;76.90
40023;DHT22;25713;-35.352;149.036;2023-02-28T02:05:17;22.40;75.80
40023;DHT22;25713;-35.352;149.036;2023-02-28T02:07:48;22.40;76.20
40023;DHT22;25713;-35.352;149.036;2023-02-28T02:10:20;22.40;76.20
40023;DHT22;25713;-35.352;149.036;2023-02-28T02:13:09;22.40;78.20
40023;DHT22;25713;-35.352;149.036;2023-02-28T02:15:44;22.40;79.30
40023;DHT22;25713;-35.352;149.036;2023-02-28T02:18:28;22.30;80.00
40023;DHT22;25713;-35.352;149.036;2023-02-28T02:24:17;22.40;76.30
40023;DHT22;25713;-35.352;149.036;2023-02-28T02:26:59;22.50;77.60
40023;DHT22;25713;-35.352;149.036;2023-02-28T02:33:12;22.30;80.20
40023;DHT22;25713;-35.352;149.036;2023-02-28T02:35:53;22.30;79.20
40023;DHT22;25713;-35.352;149.036;2023-02-28T02:38:32;22.30;78.10
40023;DHT22;25713;-35.352;149.036;2023-02-28T02:41:10;22.30;80.40
40023;DHT22;25713;-35.352;149.036;2023-02-28T02:43:46;22.30;81.70
40023;DHT22;25713;-35.352;149.036;2023-02-28T02:46:19;22.20;81.90
40023;DHT22;25713;-35.352;149.036;2023-02-28T02:48:51;22.20;80.30
40023;DHT22;25713;-35.352;149.036;2023-02-28T02:51:25;22.30;76.40
40023;DHT22;25713;-35.352;149.036;2023-02-28T02:53:57;22.50;71.80
40023;DHT22;25713;-35.352;149.036;2023-02-28T02:56:30;22.50;76.20
40023;DHT22;25713;-35.352;149.036;2023-02-28T02:59:03;22.80;71.20
40023;DHT22;25713;-35.352;149.036;2023-02-28T03:01:33;22.90;71.20
40023;DHT22;25713;-35.352;149.036;2023-02-28T03:04:06;23.00;71.60
40023;DHT22;25713;-35.352;149.036;2023-02-28T03:06:38;23.00;73.50
40023;DHT22;25713;-35.352;149.036;2023-02-28T03:09:08;23.00;75.40
40023;DHT22;25713;-35.352;149.036;2023-02-28T03:11:38;22.90;72.40
40023;DHT22;25713;-35.352;149.036;2023-02-28T03:14:20;23.00;73.30
40023;DHT22;25713;-35.352;149.036;2023-02-28T03:17:25;23.00;71.30
40023;DHT22;25713;-35.352;149.036;2023-02-28T03:20:07;23.20;70.10
40023;DHT22;25713;-35.352;149.036;2023-02-28T03:22:52;23.10;72.60
40023;DHT22;25713;-35.352;149.036;2023-02-28T03:25:33;23.10;73.10
40023;DHT22;25713;-35.352;149.036;2023-02-28T03:28:11;23.10;71.20
40023;DHT22;25713;-35.352;149.036;2023-02-28T03:30:48;23.10;69.00
40023;DHT22;25713;-35.352;149.036;2023-02-28T03:33:23;23.20;72.70
40023;DHT22;25713;-35.352;149.036;2023-02-28T03:35:56;23.20;71.30
40023;DHT22;25713;-35.352;149.036;2023-02-28T03:38:33;23.20;69.70
40023;DHT22;25713;-35.352;149.036;2023-02-28T03:41:09;23.20;69.70
40023;DHT22;25713;-35.352;149.036;2023-02-28T03:43:44;23.20;69.70
40023;DHT22;25713;-35.352;149.036;2023-02-28T03:46:16;23.20;67.80
40023;DHT22;25713;-35.352;149.036;2023-02-28T03:48:49;23.30;65.20
40023;DHT22;25713;-35.352;149.036;2023-02-28T03:51:21;23.30;67.80
40023;DHT22;25713;-35.352;149.036;2023-02-28T03:53:56;23.40;66.70
40023;DHT22;25713;-35.352;149.036;2023-02-28T03:56:31;23.30;69.70
40023;DHT22;25713;-35.352;149.036;2023-02-28T03:59:04;23.30;67.10
40023;DHT22;25713;-35.352;149.036;2023-02-28T04:01:38;23.30;67.50
40023;DHT22;25713;-35.352;149.036;2023-02-28T04:04:08;23.40;65.20
40023;DHT22;25713;-35.352;149.036;2023-02-28T04:06:38;23.40;65.60
40023;DHT22;25713;-35.352;149.036;2023-02-28T04:09:11;23.70;64.70
40023;DHT22;25713;-35.352;149.036;2023-02-28T04:11:42;23.80;64.30
40023;DHT22;25713;-35.352;149.036;2023-02-28T04:14:12;23.60;66.30
40023;DHT22;25713;-35.352;149.036;2023-02-28T04:16:42;23.80;64.00
40023;DHT22;25713;-35.352;149.036;2023-02-28T04:19:13;23.80;65.30
40023;DHT22;25713;-35.352;149.036;2023-02-28T04:21:44;23.70;67.20
40023;DHT22;25713;-35.352;149.036;2023-02-28T04:24:16;23.70;67.90
40023;DHT22;25713;-35.352;149.036;2023-02-28T04:26:44;23.60;69.70
40023;DHT22;25713;-35.352;149.036;2023-02-28T04:29:18;23.60;67.20
40023;DHT22;25713;-35.352;149.036;2023-02-28T04:31:48;23.70;64.70
40023;DHT22;25713;-35.352;149.036;2023-02-28T04:34:18;23.70;65.50
40023;DHT22;25713;-35.352;149.036;2023-02-28T04:36:47;23.70;65.80
40023;DHT22;25713;-35.352;149.036;2023-02-28T04:39:18;23.70;65.60
40023;DHT22;25713;-35.352;149.036;2023-02-28T04:41:48;23.70;66.10
40023;DHT22;25713;-35.352;149.036;2023-02-28T04:44:17;23.70;64.50
40023;DHT22;25713;-35.352;149.036;2023-02-28T04:46:48;23.80;63.70
40023;DHT22;25713;-35.352;149.036;2023-02-28T04:49:18;23.80;67.60
40023;DHT22;25713;-35.352;149.036;2023-02-28T04:51:47;23.80;65.80
40023;DHT22;25713;-35.352;149.036;2023-02-28T04:54:19;23.70;64.80
40023;DHT22;25713;-35.352;149.036;2023-02-28T04:56:49;24.00;64.10
40023;DHT22;25713;-35.352;149.036;2023-02-28T04:59:18;24.00;65.70
40023;DHT22;25713;-35.352;149.036;2023-02-28T05:01:48;23.80;65.00
40023;DHT22;25713;-35.352;149.036;2023-02-28T05:04:18;23.80;64.60
40023;DHT22;25713;-35.352;149.036;2023-02-28T05:06:48;23.70;69.10
40023;DHT22;25713;-35.352;149.036;2023-02-28T05:09:19;23.70;65.90
40023;DHT22;25713;-35.352;149.036;2023-02-28T05:11:49;23.70;67.30
40023;DHT22;25713;-35.352;149.036;2023-02-28T05:14:18;23.70;66.40
40023;DHT22;25713;-35.352;149.036;2023-02-28T05:16:48;23.70;68.60
40023;DHT22;25713;-35.352;149.036;2023-02-28T05:19:17;23.80;65.10
40023;DHT22;25713;-35.352;149.036;2023-02-28T05:21:51;23.90;66.40
40023;DHT22;25713;-35.352;149.036;2023-02-28T05:24:23;23.90;65.60
40023;DHT22;25713;-35.352;149.036;2023-02-28T05:26:53;23.90;66.60
40023;DHT22;25713;-35.352;149.036;2023-02-28T05:29:23;23.90;65.00
40023;DHT22;25713;-35.352;149.036;2023-02-28T05:31:53;23.80;66.90
40023;DHT22;25713;-35.352;149.036;2023-02-28T05:34:22;24.00;63.80
40023;DHT22;25713;-35.352;149.036;2023-02-28T05:36:52;24.00;63.70
40023;DHT22;25713;-35.352;149.036;2023-02-28T05:39:23;23.90;62.70
40023;DHT22;25713;-35.352;149.036;2023-02-28T05:41:52;23.80;67.00
40023;DHT22;25713;-35.352;149.036;2023-02-28T05:44:22;23.80;68.30
40023;DHT22;25713;-35.352;149.036;2023-02-28T05:46:51;23.70;68.00
40023;DHT22;25713;-35.352;149.036;2023-02-28T05:49:21;23.70;67.00
40023;DHT22;25713;-35.352;149.036;2023-02-28T05:51:50;23.70;65.50
40023;DHT22;25713;-35.352;149.036;2023-02-28T05:54:21;23.70;65.10
40023;DHT22;25713;-35.352;149.036;2023-02-28T05:56:51;23.80;65.90
40023;DHT22;25713;-35.352;149.036;2023-02-28T05:59:20;23.80;63.90
40023;DHT22;25713;-35.352;149.036;2023-02-28T06:01:49;23.90;63.50
40023;DHT22;25713;-35.352;149.036;2023-02-28T06:04:20;24.00;63.50
40023;DHT22;25713;-35.352;149.036;2023-02-28T06:06:50;24.00;63.40
40023;DHT22;25713;-35.352;149.036;2023-02-28T06:09:22;23.90;67.50
40023;DHT22;25713;-35.352;149.036;2023-02-28T06:11:51;23.90;65.60
40023;DHT22;25713;-35.352;149.036;2023-02-28T06:14:21;24.00;63.50
40023;DHT22;25713;-35.352;149.036;2023-02-28T06:16:50;23.90;66.90
40023;DHT22;25713;-35.352;149.036;2023-02-28T06:19:20;23.80;67.50
40023;DHT22;25713;-35.352;149.036;2023-02-28T06:21:50;23.80;63.00
40023;DHT22;25713;-35.352;149.036;2023-02-28T06:24:24;23.80;66.10
40023;DHT22;25713;-35.352;149.036;2023-02-28T06:26:54;23.80;64.00
40023;DHT22;25713;-35.352;149.036;2023-02-28T06:29:23;23.70;67.30
40023;DHT22;25713;-35.352;149.036;2023-02-28T06:31:52;23.70;64.00
40023;DHT22;25713;-35.352;149.036;2023-02-28T06:34:22;23.80;64.70
40023;DHT22;25713;-35.352;149.036;2023-02-28T06:36:52;23.80;65.30
40023;DHT22;25713;-35.352;149.036;2023-02-28T06:39:24;23.80;62.40
40023;DHT22;25713;-35.352;149.036;2023-02-28T06:41:53;23.80;64.10
40023;DHT22;25713;-35.352;149.036;2023-02-28T06:44:23;23.80;65.20
40023;DHT22;25713;-35.352;149.036;2023-02-28T06:46:52;23.70;66.30
40023;DHT22;25713;-35.352;149.036;2023-02-28T06:49:22;23.70;64.10
40023;DHT22;25713;-35.352;149.036;2023-02-28T06:51:51;23.80;62.60
40023;DHT22;25713;-35.352;149.036;2023-02-28T06:54:21;23.80;66.60
40023;DHT22;25713;-35.352;149.036;2023-02-28T06:56:54;23.70;65.30
40023;DHT22;25713;-35.352;149.036;2023-02-28T06:59:23;23.70;64.80
40023;DHT22;25713;-35.352;149.036;2023-02-28T07:04:24;23.80;63.70
40023;DHT22;25713;-35.352;149.036;2023-02-28T07:06:53;23.80;64.00
40023;DHT22;25713;-35.352;149.036;2023-02-28T07:09:23;23.80;65.60
40023;DHT22;25713;-35.352;149.036;2023-02-28T07:11:55;23.90;64.50
40023;DHT22;25713;-35.352;149.036;2023-02-28T07:14:24;23.80;64.80
40023;DHT22;25713;-35.352;149.036;2023-02-28T07:16:54;23.80;64.70
40023;DHT22;25713;-35.352;149.036;2023-02-28T07:19:23;23.80;64.50
40023;DHT22;25713;-35.352;149.036;2023-02-28T07:21:53;23.80;64.30
40023;DHT22;25713;-35.352;149.036;2023-02-28T07:24:22;23.80;64.80
40023;DHT22;25713;-35.352;149.036;2023-02-28T07:26:54;23.70;66.00
40023;DHT22;25713;-35.352;149.036;2023-02-28T07:29:23;23.70;66.20
40023;DHT22;25713;-35.352;149.036;2023-02-28T07:31:53;23.70;65.00
40023;DHT22;25713;-35.352;149.036;2023-02-28T07:34:22;23.70;65.80
40023;DHT22;25713;-35.352;149.036;2023-02-28T07:36:54;23.70;64.40
40023;DHT22;25713;-35.352;149.036;2023-02-28T07:39:24;23.70;64.60
40023;DHT22;25713;-35.352;149.036;2023-02-28T07:41:55;23.70;64.40
40023;DHT22;25713;-35.352;149.036;2023-02-28T07:44:28;23.70;65.80
40023;DHT22;25713;-35.352;149.036;2023-02-28T07:46:58;23.70;66.30
40023;DHT22;25713;-35.352;149.036;2023-02-28T07:49:27;23.60;66.40
40023;DHT22;25713;-35.352;149.036;2023-02-28T07:51:56;23.70;64.60
40023;DHT22;25713;-35.352;149.036;2023-02-28T07:54:26;23.70;65.20
40023;DHT22;25713;-35.352;149.036;2023-02-28T07:56:57;23.70;64.50
40023;DHT22;25713;-35.352;149.036;2023-02-28T07:59:27;23.70;64.50
40023;DHT22;25713;-35.352;149.036;2023-02-28T08:01:58;23.70;64.80
40023;DHT22;25713;-35.352;149.036;2023-02-28T08:04:27;23.70;64.60
40023;DHT22;25713;-35.352;149.036;2023-02-28T08:06:57;23.60;64.50
40023;DHT22;25713;-35.352;149.036;2023-02-28T08:09:27;23.60;64.80
40023;DHT22;25713;-35.352;149.036;2023-02-28T08:11:58;23.50;65.70
40023;DHT22;25713;-35.352;149.036;2023-02-28T08:14:28;23.50;65.70
40023;DHT22;25713;-35.352;149.036;2023-02-28T08:16:58;23.50;66.30
40023;DHT22;25713;-35.352;149.036;2023-02-28T08:19:27;23.50;65.00
40023;DHT22;25713;-35.352;149.036;2023-02-28T08:21:57;23.50;64.50
40023;DHT22;25713;-35.352;149.036;2023-02-28T08:24:26;23.40;65.00
40023;DHT22;25713;-35.352;149.036;2023-02-28T08:26:58;23.40;65.50
40023;DHT22;25713;-35.352;149.036;2023-02-28T08:29:27;23.40;65.40
40023;DHT22;25713;-35.352;149.036;2023-02-28T08:31:56;23.40;66.00
40023;DHT22;25713;-35.352;149.036;2023-02-28T08:34:26;23.40;65.40
40023;DHT22;25713;-35.352;149.036;2023-02-28T08:36:55;23.30;66.60
40023;DHT22;25713;-35.352;149.036;2023-02-28T08:39:25;23.30;65.70
40023;DHT22;25713;-35.352;149.036;2023-02-28T08:41:54;23.20;66.80
40023;DHT22;25713;-35.352;149.036;2023-02-28T08:44:26;23.20;67.50
40023;DHT22;25713;-35.352;149.036;2023-02-28T08:46:56;23.20;66.90
40023;DHT22;25713;-35.352;149.036;2023-02-28T08:49:25;23.10;67.50
40023;DHT22;25713;-35.352;149.036;2023-02-28T08:51:55;23.20;67.20
40023;DHT22;25713;-35.352;149.036;2023-02-28T08:54:24;23.10;67.10
40023;DHT22;25713;-35.352;149.036;2023-02-28T08:56:54;23.10;67.90
40023;DHT22;25713;-35.352;149.036;2023-02-28T08:59:25;23.10;67.40
40023;DHT22;25713;-35.352;149.036;2023-02-28T09:01:55;23.10;69.90
40023;DHT22;25713;-35.352;149.036;2023-02-28T09:04:24;23.10;67.60
40023;DHT22;25713;-35.352;149.036;2023-02-28T09:06:54;23.10;68.30
40023;DHT22;25713;-35.352;149.036;2023-02-28T09:09:24;23.00;70.30
40023;DHT22;25713;-35.352;149.036;2023-02-28T09:11:55;23.00;68.50
40023;DHT22;25713;-35.352;149.036;2023-02-28T09:14:27;23.00;69.40
40023;DHT22;25713;-35.352;149.036;2023-02-28T09:16:57;23.00;70.00
40023;DHT22;25713;-35.352;149.036;2023-02-28T09:19:27;23.00;68.30
40023;DHT22;25713;-35.352;149.036;2023-02-28T09:21:56;23.00;69.00
40023;DHT22;25713;-35.352;149.036;2023-02-28T09:24:26;23.00;69.90
40023;DHT22;25713;-35.352;149.036;2023-02-28T09:26:55;22.90;70.10
40023;DHT22;25713;-35.352;149.036;2023-02-28T09:29:27;22.90;69.80
40023;DHT22;25713;-35.352;149.036;2023-02-28T09:31:56;22.90;70.20
40023;DHT22;25713;-35.352;149.036;2023-02-28T09:34:26;22.90;73.60
40023;DHT22;25713;-35.352;149.036;2023-02-28T09:36:55;22.90;72.50
40023;DHT22;25713;-35.352;149.036;2023-02-28T09:39:25;22.90;74.50
40023;DHT22;25713;-35.352;149.036;2023-02-28T09:41:55;22.90;76.00
40023;DHT22;25713;-35.352;149.036;2023-02-28T09:44:33;22.90;75.90
40023;DHT22;25713;-35.352;149.036;2023-02-28T09:47:11;22.80;76.80
40023;DHT22;25713;-35.352;149.036;2023-02-28T09:49:45;22.80;76.90
40023;DHT22;25713;-35.352;149.036;2023-02-28T09:52:18;22.80;77.90
40023;DHT22;25713;-35.352;149.036;2023-02-28T09:54:50;22.80;78.30
40023;DHT22;25713;-35.352;149.036;2023-02-28T09:57:29;22.80;78.50
40023;DHT22;25713;-35.352;149.036;2023-02-28T10:00:13;22.80;78.30
40023;DHT22;25713;-35.352;149.036;2023-02-28T10:02:53;22.80;76.00
40023;DHT22;25713;-35.352;149.036;2023-02-28T10:05:27;22.80;77.90
40023;DHT22;25713;-35.352;149.036;2023-02-28T10:08:03;22.70;77.50
40023;DHT22;25713;-35.352;149.036;2023-02-28T10:10:39;22.60;77.40
40023;DHT22;25713;-35.352;149.036;2023-02-28T10:13:20;22.70;77.70
40023;DHT22;25713;-35.352;149.036;2023-02-28T10:15:58;22.60;77.80
40023;DHT22;25713;-35.352;149.036;2023-02-28T10:18:30;22.60;79.00
40023;DHT22;25713;-35.352;149.036;2023-02-28T10:21:05;22.60;80.30
40023;DHT22;25713;-35.352;149.036;2023-02-28T10:23:36;22.60;80.10
40023;DHT22;25713;-35.352;149.036;2023-02-28T10:26:09;22.60;80.70
40023;DHT22;25713;-35.352;149.036;2023-02-28T10:28:40;22.60;80.80
40023;DHT22;25713;-35.352;149.036;2023-02-28T10:31:14;22.60;81.20
40023;DHT22;25713;-35.352;149.036;2023-02-28T10:33:45;22.60;82.00
40023;DHT22;25713;-35.352;149.036;2023-02-28T10:36:16;22.60;82.20
40023;DHT22;25713;-35.352;149.036;2023-02-28T10:38:47;22.60;82.30
40023;DHT22;25713;-35.352;149.036;2023-02-28T10:41:26;22.60;82.50
40023;DHT22;25713;-35.352;149.036;2023-02-28T10:44:13;22.60;83.00
40023;DHT22;25713;-35.352;149.036;2023-02-28T10:46:45;22.50;83.00
40023;DHT22;25713;-35.352;149.036;2023-02-28T10:49:17;22.50;83.40
40023;DHT22;25713;-35.352;149.036;2023-02-28T10:51:47;22.50;83.60
40023;DHT22;25713;-35.352;149.036;2023-02-28T10:54:22;22.50;83.90
40023;DHT22;25713;-35.352;149.036;2023-02-28T10:57:16;22.50;83.80
40023;DHT22;25713;-35.352;149.036;2023-02-28T10:59:46;22.50;84.00
40023;DHT22;25713;-35.352;149.036;2023-02-28T11:02:35;22.50;84.40
40023;DHT22;25713;-35.352;149.036;2023-02-28T11:05:27;22.50;84.20
40023;DHT22;25713;-35.352;149.036;2023-02-28T11:07:59;22.50;84.20
40023;DHT22;25713;-35.352;149.036;2023-02-28T11:10:32;22.40;84.40
40023;DHT22;25713;-35.352;149.036;2023-02-28T11:13:03;22.50;84.60
40023;DHT22;25713;-35.352;149.036;2023-02-28T11:15:33;22.50;84.70
40023;DHT22;25713;-35.352;149.036;2023-02-28T11:18:20;22.40;84.60
40023;DHT22;25713;-35.352;149.036;2023-02-28T11:20:51;22.40;84.60
40023;DHT22;25713;-35.352;149.036;2023-02-28T11:23:22;22.50;84.80
40023;DHT22;25713;-35.352;149.036;2023-02-28T11:25:56;22.40;84.60
40023;DHT22;25713;-35.352;149.036;2023-02-28T11:28:28;22.40;84.90
40023;DHT22;25713;-35.352;149.036;2023-02-28T11:31:16;22.40;85.20
40023;DHT22;25713;-35.352;149.036;2023-02-28T11:33:49;22.40;85.20
40023;DHT22;25713;-35.352;149.036;2023-02-28T11:36:21;22.40;85.30
40023;DHT22;25713;-35.352;149.036;2023-02-28T11:38:52;22.40;85.50
40023;DHT22;25713;-35.352;149.036;2023-02-28T11:41:39;22.30;85.60
40023;DHT22;25713;-35.352;149.036;2023-02-28T11:44:28;22.30;85.80
40023;DHT22;25713;-35.352;149.036;2023-02-28T11:47:03;22.30;85.80
40023;DHT22;25713;-35.352;149.036;2023-02-28T11:49:45;22.40;86.10
40023;DHT22;25713;-35.352;149.036;2023-02-28T11:52:25;22.30;85.90
40023;DHT22;25713;-35.352;149.036;2023-02-28T11:55:08;22.30;86.10
40023;DHT22;25713;-35.352;149.036;2023-02-28T11:58:00;22.30;86.00
40023;DHT22;25713;-35.352;149.036;2023-02-28T12:00:43;22.30;86.30
40023;DHT22;25713;-35.352;149.036;2023-02-28T12:03:23;22.30;86.20
40023;DHT22;25713;-35.352;149.036;2023-02-28T12:06:04;22.30;86.20
40023;DHT22;25713;-35.352;149.036;2023-02-28T12:08:51;22.30;86.30
40023;DHT22;25713;-35.352;149.036;2023-02-28T12:11:33;22.30;86.20
40023;DHT22;25713;-35.352;149.036;2023-02-28T12:14:44;22.30;86.20
40023;DHT22;25713;-35.352;149.036;2023-02-28T12:17:24;22.30;86.10
40023;DHT22;25713;-35.352;149.036;2023-02-28T12:19:59;22.30;86.20
40023;DHT22;25713;-35.352;149.036;2023-02-28T12:22:34;22.30;86.40
40023;DHT22;25713;-35.352;149.036;2023-02-28T12:25:39;22.30;86.50
40023;DHT22;25713;-35.352;149.036;2023-02-28T12:28:13;22.30;86.40
40023;DHT22;25713;-35.352;149.036;2023-02-28T12:30:49;22.30;86.60
40023;DHT22;25713;-35.352;149.036;2023-02-28T12:33:24;22.30;86.60
40023;DHT22;25713;-35.352;149.036;2023-02-28T12:35:56;22.30;86.50
40023;DHT22;25713;-35.352;149.036;2023-02-28T12:38:31;22.30;86.60
40023;DHT22;25713;-35.352;149.036;2023-02-28T12:41:08;22.30;86.70
40023;DHT22;25713;-35.352;149.036;2023-02-28T12:43:43;22.30;86.80
40023;DHT22;25713;-35.352;149.036;2023-02-28T12:46:16;22.20;86.80
40023;DHT22;25713;-35.352;149.036;2023-02-28T12:48:49;22.30;86.90
40023;DHT22;25713;-35.352;149.036;2023-02-28T12:51:20;22.20;87.00
40023;DHT22;25713;-35.352;149.036;2023-02-28T12:54:01;22.20;87.10
40023;DHT22;25713;-35.352;149.036;2023-02-28T12:56:33;22.20;87.10
40023;DHT22;25713;-35.352;149.036;2023-02-28T12:59:11;22.20;87.20
40023;DHT22;25713;-35.352;149.036;2023-02-28T13:01:56;22.20;87.30
40023;DHT22;25713;-35.352;149.036;2023-02-28T13:04:55;22.20;87.20
40023;DHT22;25713;-35.352;149.036;2023-02-28T13:07:55;22.20;87.30
40023;DHT22;25713;-35.352;149.036;2023-02-28T13:10:42;22.20;87.50
40023;DHT22;25713;-35.352;149.036;2023-02-28T13:13:16;22.20;87.40
40023;DHT22;25713;-35.352;149.036;2023-02-28T13:16:01;22.20;87.30
40023;DHT22;25713;-35.352;149.036;2023-02-28T13:18:34;22.20;87.60
40023;DHT22;25713;-35.352;149.036;2023-02-28T13:21:04;22.20;87.60
40023;DHT22;25713;-35.352;149.036;2023-02-28T13:23:56;22.20;87.60
40023;DHT22;25713;-35.352;149.036;2023-02-28T13:27:11;22.10;87.70
40023;DHT22;25713;-35.352;149.036;2023-02-28T13:29:42;22.10;87.80
40023;DHT22;25713;-35.352;149.036;2023-02-28T13:32:42;22.10;87.80
40023;DHT22;25713;-35.352;149.036;2023-02-28T13:38:22;22.10;87.90
40023;DHT22;25713;-35.352;149.036;2023-02-28T13:40:51;22.10;87.90
40023;DHT22;25713;-35.352;149.036;2023-02-28T13:43:24;22.10;88.10
40023;DHT22;25713;-35.352;149.036;2023-02-28T13:46:13;22.10;88.10
40023;DHT22;25713;-35.352;149.036;2023-02-28T13:48:42;22.10;88.10
40023;DHT22;25713;-35.352;149.036;2023-02-28T13:51:39;22.00;88.00
40023;DHT22;25713;-35.352;149.036;2023-02-28T13:54:29;22.00;88.10
40023;DHT22;25713;-35.352;149.036;2023-02-28T13:57:14;22.00;88.10
40023;DHT22;25713;-35.352;149.036;2023-02-28T13:59:55;22.00;88.10
40023;DHT22;25713;-35.352;149.036;2023-02-28T14:02:50;22.00;88.30
40023;DHT22;25713;-35.352;149.036;2023-02-28T14:05:24;22.00;88.20
40023;DHT22;25713;-35.352;149.036;2023-02-28T14:07:56;22.00;88.30
40023;DHT22;25713;-35.352;149.036;2023-02-28T14:10:28;22.00;88.40
40023;DHT22;25713;-35.352;149.036;2023-02-28T14:13:10;22.00;88.50
40023;DHT22;25713;-35.352;149.036;2023-02-28T14:15:46;22.00;88.70
40023;DHT22;25713;-35.352;149.036;2023-02-28T14:18:29;21.90;88.60
40023;DHT22;25713;-35.352;149.036;2023-02-28T14:21:11;21.90;88.50
40023;DHT22;25713;-35.352;149.036;2023-02-28T14:24:10;21.90;88.50
40023;DHT22;25713;-35.352;149.036;2023-02-28T14:27:13;21.90;88.50
40023;DHT22;25713;-35.352;149.036;2023-02-28T14:30:21;21.90;88.60
40023;DHT22;25713;-35.352;149.036;2023-02-28T14:33:05;21.90;88.60
40023;DHT22;25713;-35.352;149.036;2023-02-28T14:36:07;21.90;88.70
40023;DHT22;25713;-35.352;149.036;2023-02-28T14:38:42;21.90;88.80
40023;DHT22;25713;-35.352;149.036;2023-02-28T14:41:22;21.90;88.90
40023;DHT22;25713;-35.352;149.036;2023-02-28T14:43:55;21.90;88.80
40023;DHT22;25713;-35.352;149.036;2023-02-28T14:46:27;21.90;88.80
40023;DHT22;25713;-35.352;149.036;2023-02-28T15:52:17;21.40;89.30
40023;DHT22;25713;-35.352;149.036;2023-02-28T15:54:47;21.40;90.00
40023;DHT22;25713;-35.352;149.036;2023-02-28T15:57:20;21.40;90.10
40023;DHT22;25713;-35.352;149.036;2023-02-28T15:59:55;21.40;90.20
40023;DHT22;25713;-35.352;149.036;2023-02-28T16:02:32;21.40;90.10
40023;DHT22;25713;-35.352;149.036;2023-02-28T16:05:18;21.40;90.20
40023;DHT22;25713;-35.352;149.036;2023-02-28T16:07:50;21.40;90.10
40023;DHT22;25713;-35.352;149.036;2023-02-28T16:10:20;21.40;90.10
40023;DHT22;25713;-35.352;149.036;2023-02-28T16:12:50;21.40;90.30
40023;DHT22;25713;-35.352;149.036;2023-02-28T16:15:21;21.50;90.00
40023;DHT22;25713;-35.352;149.036;2023-02-28T16:17:51;21.50;89.90
40023;DHT22;25713;-35.352;149.036;2023-02-28T16:20:22;21.50;89.70
40023;DHT22;25713;-35.352;149.036;2023-02-28T16:22:54;21.50;89.50
40023;DHT22;25713;-35.352;149.036;2023-02-28T16:25:23;21.40;89.20
40023;DHT22;25713;-35.352;149.036;2023-02-28T16:27:55;21.40;89.10
40023;DHT22;25713;-35.352;149.036;2023-02-28T16:30:26;21.50;88.90
40023;DHT22;25713;-35.352;149.036;2023-02-28T16:32:56;21.40;88.60
40023;DHT22;25713;-35.352;149.036;2023-02-28T16:35:26;21.40;88.90
40023;DHT22;25713;-35.352;149.036;2023-02-28T16:37:57;21.40;89.20
40023;DHT22;25713;-35.352;149.036;2023-02-28T16:40:27;21.40;89.00
40023;DHT22;25713;-35.352;149.036;2023-02-28T16:42:58;21.40;88.90
40023;DHT22;25713;-35.352;149.036;2023-02-28T16:45:29;21.40;88.90
40023;DHT22;25713;-35.352;149.036;2023-02-28T16:47:58;21.40;88.80